Observation data for Gail on 11/07/2019      Previous  Date       Current Mesonet Observations  Soil Data  Daily Summary Page  Observations in Plain Language
KGGS 070600Z 07007KT 15/13 A3013 RMK A01 T01460133  RH  096%=      5-min Rain = 0.02
KGGS 070605Z 08007KT 15/13 A3014 RMK A01 T01460134  RH  096%=      5-min Rain = 0
KGGS 070610Z 07007KT 15/13 A3014 RMK A01 T01460134  RH  096%=      5-min Rain = 0.01
KGGS 070615Z 06006KT 15/13 A3014 RMK A01 T01460134  RH  096%=      5-min Rain = 0.01
KGGS 070620Z 07006KT 15/13 A3014 RMK A01 T01460134  RH  096%=      5-min Rain = 0
KGGS 070625Z 07006KT 15/13 A3014 RMK A01 T01450134  RH  096%=      5-min Rain = 0
KGGS 070630Z 07006KT 15/13 A3014 RMK A01 T01450133  RH  096%=      5-min Rain = 0
KGGS 070635Z 07006KT 15/13 A3013 RMK A01 T01450133  RH  096%=      5-min Rain = 0
KGGS 070640Z 08006KT 15/13 A3013 RMK A01 T01450133  RH  097%=      5-min Rain = 0
KGGS 070645Z 07007KT 15/13 A3013 RMK A01 T01450133  RH  097%=      5-min Rain = 0
KGGS 070650Z 07007KT 15/13 A3013 RMK A01 T01450133  RH  097%=      5-min Rain = 0
KGGS 070655Z 10005KT 15/13 A3013 RMK A01 T01450133  RH  097%=      5-min Rain = 0
KGGS 070700Z 07007KT 15/13 A3013 RMK A01 T01450133  RH  097%=      5-min Rain = 0
KGGS 070705Z 05005G10KT 15/13 A3012 RMK A01 T01450134  RH  097%=      5-min Rain = 0
KGGS 070710Z 12004KT 15/13 A3013 RMK A01 T01450133  RH  097%=      5-min Rain = 0
KGGS 070715Z 12003KT 15/13 A3013 RMK A01 T01450134  RH  097%=      5-min Rain = 0
KGGS 070720Z 07005KT 15/13 A3012 RMK A01 T01450133  RH  097%=      5-min Rain = 0
KGGS 070725Z 08004KT 15/13 A3012 RMK A01 T01450134  RH  097%=      5-min Rain = 0
KGGS 070730Z 09004KT 15/13 A3012 RMK A01 T01450133  RH  097%=      5-min Rain = 0
KGGS 070735Z 09003KT 15/13 A3012 RMK A01 T01450133  RH  097%=      5-min Rain = 0
KGGS 070740Z 09003KT 15/13 A3011 RMK A01 T01450133  RH  097%=      5-min Rain = 0
KGGS 070745Z 10003KT 15/13 A3011 RMK A01 T01450133  RH  097%=      5-min Rain = 0
KGGS 070750Z 11002KT 14/13 A3012 RMK A01 T01440133  RH  097%=      5-min Rain = 0
KGGS 070755Z 09001KT 14/13 A3012 RMK A01 T01440133  RH  097%=      5-min Rain = 0
KGGS 070800Z 09000KT 14/13 A3012 RMK A01 T01440133  RH  097%=      5-min Rain = 0
KGGS 070805Z 06002KT 14/13 A3012 RMK A01 T01440132  RH  097%=      5-min Rain = 0
KGGS 070810Z 04002KT 14/13 A3011 RMK A01 T01430132  RH  097%=      5-min Rain = 0.01
KGGS 070815Z 02001KT 14/13 A3012 RMK A01 T01430132  RH  097%=      5-min Rain = 0
KGGS 070820Z 16000KT 14/13 A3012 RMK A01 T01430132  RH  097%=      5-min Rain = 0
KGGS 070825Z 16002KT 14/13 A3012 RMK A01 T01430132  RH  097%=      5-min Rain = 0
KGGS 070830Z 16003KT 14/13 A3012 RMK A01 T01440132  RH  097%=      5-min Rain = 0
KGGS 070835Z 13002KT 14/13 A3012 RMK A01 T01440133  RH  097%=      5-min Rain = 0
KGGS 070840Z 11001KT 14/13 A3012 RMK A01 T01440133  RH  097%=      5-min Rain = 0
KGGS 070845Z 08001KT 14/13 A3012 RMK A01 T01440133  RH  097%=      5-min Rain = 0
KGGS 070850Z 15000KT 14/13 A3013 RMK A01 T01440133  RH  097%=      5-min Rain = 0
KGGS 070855Z 08001KT 14/13 A3012 RMK A01 T01440133  RH  097%=      5-min Rain = 0
KGGS 070900Z 07004KT 15/13 A3012 RMK A01 T01450133  RH  097%=      5-min Rain = 0
KGGS 070905Z 06002KT 15/13 A3012 RMK A01 T01450133  RH  097%=      5-min Rain = 0
KGGS 070910Z 09002KT 15/13 A3013 RMK A01 T01450133  RH  097%=      5-min Rain = 0
KGGS 070915Z 35001KT 15/13 A3014 RMK A01 T01450133  RH  097%=      5-min Rain = 0.02
KGGS 070920Z 34004KT 15/13 A3014 RMK A01 T01450133  RH  097%=      5-min Rain = 0.04
KGGS 070925Z 01004KT 14/13 A3014 RMK A01 T01440133  RH  097%=      5-min Rain = 0.02
KGGS 070930Z 02003KT 14/13 A3014 RMK A01 T01440133  RH  097%=      5-min Rain = 0.02
KGGS 070935Z 01005KT 14/13 A3014 RMK A01 T01440133  RH  097%=      5-min Rain = 0.02
KGGS 070940Z 01005KT 15/13 A3014 RMK A01 T01450133  RH  097%=      5-min Rain = 0.01
KGGS 070945Z 01018G32KT 13/12 A3016 RMK A01 T01280116  RH  096%=      5-min Rain = 0.02
KGGS 070950Z 02025G33KT 09/08 A3017 RMK A01 T00900079  RH  096%=      5-min Rain = 0.02
KGGS 070955Z 02024G31KT 08/07 A3017 RMK A01 T00830073  RH  096%=      5-min Rain = 0.01
KGGS 071000Z 02023G32KT 08/07 A3017 RMK A01 T00780068  RH  096%=      5-min Rain = 0.01
KGGS 071005Z 02024G31KT 07/07 A3017 RMK A01 T00740065  RH  096%=      5-min Rain = 0
KGGS 071010Z 02020G26KT 07/06 A3018 RMK A01 T00730063  RH  096%=      5-min Rain = 0.01
KGGS 071015Z 02017G25KT 07/06 A302 RMK A01 T00710062  RH  096%=      5-min Rain = 0.03
KGGS 071020Z 02017G26KT 07/06 A3021 RMK A01 T00700061  RH  096%=      5-min Rain = 0.04
KGGS 071025Z 02016G24KT 07/06 A3022 RMK A01 T00680059  RH  096%=      5-min Rain = 0.02
KGGS 071030Z 02016G21KT 07/06 A3023 RMK A01 T00650056  RH  096%=      5-min Rain = 0.02
KGGS 071035Z 02018KT 06/05 A3023 RMK A01 T00620053  RH  096%=      5-min Rain = 0.03
KGGS 071040Z 02020G26KT 06/05 A3022 RMK A01 T00600051  RH  096%=      5-min Rain = 0.02
KGGS 071045Z 02021G27KT 06/05 A3021 RMK A01 T00580049  RH  096%=      5-min Rain = 0.02
KGGS 071050Z 02020G27KT 06/05 A3022 RMK A01 T00580049  RH  096%=      5-min Rain = 0.01
KGGS 071055Z 01017G23KT 06/05 A3023 RMK A01 T00570048  RH  096%=      5-min Rain = 0.01
KGGS 071100Z 02017G24KT 06/05 A3023 RMK A01 T00560046  RH  096%=      5-min Rain = 0.01
KGGS 071105Z 03020G27KT 05/04 A3022 RMK A01 T00520043  RH  095%=      5-min Rain = 0.01
KGGS 071110Z 02022G27KT 05/04 A3023 RMK A01 T00490040  RH  095%=      5-min Rain = 0.01
KGGS 071115Z 01020G25KT 05/04 A3025 RMK A01 T00490039  RH  095%=      5-min Rain = 0.01
KGGS 071120Z 02020G25KT 05/04 A3025 RMK A01 T00480038  RH  095%=      5-min Rain = 0.03
KGGS 071125Z 01019G25KT 05/04 A3025 RMK A01 T00470037  RH  095%=      5-min Rain = 0.03
KGGS 071130Z 02020G26KT 05/04 A3025 RMK A01 T00460036  RH  095%=      5-min Rain = 0.02
KGGS 071135Z 01020KT 05/04 A3025 RMK A01 T00450035  RH  095%=      5-min Rain = 0.01
KGGS 071140Z 01018G24KT 05/03 A3026 RMK A01 T00450034  RH  095%=      5-min Rain = 0.01
KGGS 071145Z 01018G25KT 04/03 A3027 RMK A01 T00440033  RH  094%=      5-min Rain = 0.01
KGGS 071150Z 01020G26KT 04/03 A3027 RMK A01 T00430032  RH  094%=      5-min Rain = 0.01
KGGS 071155Z 01020G26KT 04/03 A3027 RMK A01 T00420031  RH  094%=      5-min Rain = 0.02
KGGS 071200Z 01018G25KT 04/03 A3028 RMK A01 T00420031  RH  094%=      5-min Rain = 0.02
KGGS 071205Z 01019G25KT 04/03 A3029 RMK A01 T00420030  RH  094%=      5-min Rain = 0.03
KGGS 071210Z 01019G25KT 04/03 A3029 RMK A01 T00410029  RH  094%=      5-min Rain = 0.02
KGGS 071215Z 01021G27KT 04/03 A3028 RMK A01 T00400028  RH  093%=      5-min Rain = 0.03
KGGS 071220Z 01020G27KT 04/03 A3029 RMK A01 T00390027  RH  093%=      5-min Rain = 0.02
KGGS 071225Z 01021G27KT 04/03 A3029 RMK A01 T00380025  RH  093%=      5-min Rain = 0.01
KGGS 071230Z 01020G27KT 04/03 A303 RMK A01 T00370025  RH  093%=      5-min Rain = 0
KGGS 071235Z 01018G27KT 04/03 A303 RMK A01 T00370025  RH  093%=      5-min Rain = 0
KGGS 071240Z 02021G28KT 04/02 A303 RMK A01 T00350022  RH  093%=      5-min Rain = 0
KGGS 071245Z 02021G29KT 03/02 A303 RMK A01 T00340021  RH  093%=      5-min Rain = 0
KGGS 071250Z 01020G27KT 03/02 A3031 RMK A01 T00340021  RH  092%=      5-min Rain = 0
KGGS 071255Z 02019G27KT 04/02 A303 RMK A01 T00350021  RH  092%=      5-min Rain = 0
KGGS 071300Z 01020G25KT 03/02 A3031 RMK A01 T00340020  RH  092%=      5-min Rain = 0
KGGS 071305Z 02019G27KT 03/02 A3032 RMK A01 T00340019  RH  091%=      5-min Rain = 0
KGGS 071310Z 02020KT 03/02 A3033 RMK A01 T00340018  RH  091%=      5-min Rain = 0
KGGS 071315Z 01019G27KT 03/02 A3034 RMK A01 T00330017  RH  091%=      5-min Rain = 0
KGGS 071320Z 02020G27KT 03/02 A3034 RMK A01 T00310015  RH  090%=      5-min Rain = 0
KGGS 071325Z 01021G27KT 03/01 A3034 RMK A01 T00300013  RH  090%=      5-min Rain = 0
KGGS 071330Z 01019G25KT 03/01 A3034 RMK A01 T00300013  RH  089%=      5-min Rain = 0
KGGS 071335Z 02017G23KT 03/01 A3034 RMK A01 T00300012  RH  089%=      5-min Rain = 0
KGGS 071340Z 02019G27KT 03/01 A3034 RMK A01 T00290011  RH  089%=      5-min Rain = 0
KGGS 071345Z 02021G27KT 03/01 A3035 RMK A01 T00280010  RH  089%=      5-min Rain = 0
KGGS 071350Z 02018G24KT 03/01 A3035 RMK A01 T00280010  RH  089%=      5-min Rain = 0
KGGS 071355Z 01017G23KT 03/01 A3036 RMK A01 T00280010  RH  089%=      5-min Rain = 0
KGGS 071400Z 02017G23KT 03/01 A3036 RMK A01 T00280009  RH  089%=      5-min Rain = 0
KGGS 071405Z 01016G22KT 03/01 A3035 RMK A01 T00280010  RH  089%=      5-min Rain = 0
KGGS 071410Z 01021G28KT 03/01 A3035 RMK A01 T00260008  RH  089%=      5-min Rain = 0
KGGS 071415Z 01019G26KT 03/01 A3036 RMK A01 T00250007  RH  089%=      5-min Rain = 0
KGGS 071420Z 01019G26KT 03/01 A3037 RMK A01 T00250006  RH  089%=      5-min Rain = 0
KGGS 071425Z 01019G26KT 02/01 A3038 RMK A01 T00240005  RH  088%=      5-min Rain = 0
KGGS 071430Z 01019G26KT 02/01 A3038 RMK A01 T00240005  RH  088%=      5-min Rain = 0
KGGS 071435Z 01017G25KT 02/01 A304 RMK A01 T00240005  RH  088%=      5-min Rain = 0
KGGS 071440Z 01016G23KT 02/00 A3041 RMK A01 T00240004  RH  088%=      5-min Rain = 0
KGGS 071445Z 02017G24KT 02/00 A304 RMK A01 T00240004  RH  088%=      5-min Rain = 0
KGGS 071450Z 02017G22KT 02/00 A304 RMK A01 T00230003  RH  088%=      5-min Rain = 0.01
KGGS 071455Z 02013G19KT 02/00 A304 RMK A01 T00230004  RH  089%=      5-min Rain = 0.02
KGGS 071500Z 02017G23KT 02/01 A3039 RMK A01 T00230005  RH  089%=      5-min Rain = 0.02
KGGS 071505Z 03016G23KT 02/01 A3039 RMK A01 T00220005  RH  090%=      5-min Rain = 0.01
KGGS 071510Z 03013KT 02/01 A3041 RMK A01 T00220005  RH  090%=      5-min Rain = 0.01
KGGS 071515Z 02012G18KT 02/01 A3042 RMK A01 T00220006  RH  090%=      5-min Rain = 0
KGGS 071520Z 02016KT 02/01 A3042 RMK A01 T00210005  RH  091%=      5-min Rain = 0
KGGS 071525Z 01014G19KT 02/01 A3043 RMK A01 T00210005  RH  091%=      5-min Rain = 0
KGGS 071530Z 01013G18KT 02/01 A3042 RMK A01 T00220007  RH  091%=      5-min Rain = 0
KGGS 071535Z 01017G22KT 02/01 A3042 RMK A01 T00210006  RH  091%=      5-min Rain = 0
KGGS 071540Z 02017G24KT 02/01 A3041 RMK A01 T00210006  RH  091%=      5-min Rain = 0
KGGS 071545Z 01016G23KT 02/01 A3042 RMK A01 T00220007  RH  091%=      5-min Rain = 0
KGGS 071550Z 02015G21KT 02/01 A3042 RMK A01 T00220007  RH  091%=      5-min Rain = 0
KGGS 071555Z 02016G23KT 02/01 A3043 RMK A01 T00220007  RH  091%=      5-min Rain = 0
KGGS 071600Z 02016G21KT 02/01 A3042 RMK A01 T00230008  RH  091%=      5-min Rain = 0.01
KGGS 071605Z 02016G21KT 02/01 A3042 RMK A01 T00230007  RH  091%=      5-min Rain = 0
KGGS 071610Z 03015KT 02/01 A3041 RMK A01 T00230008  RH  091%=      5-min Rain = 0
KGGS 071615Z 02014G20KT 02/01 A3041 RMK A01 T00240009  RH  091%=      5-min Rain = 0
KGGS 071620Z 02013G19KT 02/01 A3041 RMK A01 T00240009  RH  091%=      5-min Rain = 0
KGGS 071625Z 02013G18KT 02/01 A3042 RMK A01 T00240010  RH  091%=      5-min Rain = 0
KGGS 071630Z 02013G18KT 02/01 A3042 RMK A01 T00240009  RH  092%=      5-min Rain = 0.01
KGGS 071635Z 01012G17KT 02/01 A3043 RMK A01 T00240010  RH  092%=      5-min Rain = 0
KGGS 071640Z 02015G21KT 02/01 A3043 RMK A01 T00230009  RH  092%=      5-min Rain = 0
KGGS 071645Z 02015G20KT 02/01 A3043 RMK A01 T00220008  RH  092%=      5-min Rain = 0
KGGS 071650Z 02013G21KT 02/01 A3042 RMK A01 T00220008  RH  091%=      5-min Rain = 0
KGGS 071655Z 02015G21KT 02/01 A3042 RMK A01 T00220007  RH  091%=      5-min Rain = 0.01
KGGS 071700Z 02013G18KT 02/01 A3043 RMK A01 T00220007  RH  091%=      5-min Rain = 0
KGGS 071705Z 02012G17KT 02/01 A3043 RMK A01 T00210007  RH  092%=      5-min Rain = 0.02
KGGS 071710Z 01014KT 02/01 A3043 RMK A01 T00210007  RH  092%=      5-min Rain = 0
KGGS 071715Z 02014G20KT 02/01 A3043 RMK A01 T00210007  RH  092%=      5-min Rain = 0
KGGS 071720Z 01014G19KT 02/01 A3043 RMK A01 T00220007  RH  092%=      5-min Rain = 0
KGGS 071725Z 01017G22KT 02/01 A3043 RMK A01 T00200005  RH  091%=      5-min Rain = 0.01
KGGS 071730Z 02016G22KT 02/01 A3042 RMK A01 T00210007  RH  091%=      5-min Rain = 0
KGGS 071735Z 02015G20KT 02/01 A3043 RMK A01 T00200006  RH  091%=      5-min Rain = 0
KGGS 071740Z 02015G20KT 02/01 A3043 RMK A01 T00200006  RH  092%=      5-min Rain = 0
KGGS 071745Z 02016KT 02/01 A3043 RMK A01 T00210007  RH  092%=      5-min Rain = 0
KGGS 071750Z 02016KT 02/01 A3042 RMK A01 T00200006  RH  092%=      5-min Rain = 0
KGGS 071755Z 03018G24KT 02/01 A3041 RMK A01 T00200006  RH  091%=      5-min Rain = 0
KGGS 071800Z 02016G24KT 02/01 A3041 RMK A01 T00190005  RH  091%=      5-min Rain = 0
KGGS 071805Z 02015G20KT 02/01 A3041 RMK A01 T00200005  RH  091%=      5-min Rain = 0
KGGS 071810Z 02014G19KT 02/00 A3042 RMK A01 T00190004  RH  091%=      5-min Rain = 0
KGGS 071815Z 01014G20KT 02/01 A3042 RMK A01 T00200005  RH  091%=      5-min Rain = 0
KGGS 071820Z 02013KT 02/01 A3042 RMK A01 T00200005  RH  091%=      5-min Rain = 0
KGGS 071825Z 02013G18KT 02/01 A3042 RMK A01 T00200005  RH  091%=      5-min Rain = 0
KGGS 071830Z 01014G19KT 02/01 A3041 RMK A01 T00200005  RH  091%=      5-min Rain = 0
KGGS 071835Z 01015KT 02/00 A3042 RMK A01 T00200004  RH  091%=      5-min Rain = 0
KGGS 071840Z 02016KT 02/00 A3041 RMK A01 T00190003  RH  090%=      5-min Rain = 0
KGGS 071845Z 02015G20KT 02/00 A3041 RMK A01 T00190003  RH  090%=      5-min Rain = 0
KGGS 071850Z 02016G21KT 02/00 A3041 RMK A01 T00190003  RH  090%=      5-min Rain = 0
KGGS 071855Z 02013G18KT 02/00 A3042 RMK A01 T00200004  RH  090%=      5-min Rain = 0
KGGS 071900Z 02014KT 02/00 A3041 RMK A01 T00200004  RH  090%=      5-min Rain = 0
KGGS 071905Z 02013G18KT 02/00 A304 RMK A01 T00200004  RH  090%=      5-min Rain = 0
KGGS 071910Z 02015KT 02/00 A3041 RMK A01 T00200004  RH  090%=      5-min Rain = 0
KGGS 071915Z 02013G18KT 02/01 A3042 RMK A01 T00200005  RH  090%=      5-min Rain = 0
KGGS 071920Z 01014KT 02/00 A3041 RMK A01 T00200004  RH  090%=      5-min Rain = 0
KGGS 071925Z 01013KT 02/01 A3041 RMK A01 T00210006  RH  091%=      5-min Rain = 0
KGGS 071930Z 01013KT 02/01 A3041 RMK A01 T00210005  RH  091%=      5-min Rain = 0
KGGS 071935Z 36015G21KT 02/01 A3041 RMK A01 T00200005  RH  091%=      5-min Rain = 0
KGGS 071940Z 01016G21KT 02/01 A304 RMK A01 T00200005  RH  091%=      5-min Rain = 0
KGGS 071945Z 01014G19KT 02/01 A304 RMK A01 T00210006  RH  091%=      5-min Rain = 0
KGGS 071950Z 02014G19KT 02/01 A304 RMK A01 T00210006  RH  091%=      5-min Rain = 0
KGGS 071955Z 02012G17KT 02/01 A304 RMK A01 T00210007  RH  091%=      5-min Rain = 0
KGGS 072000Z 01013G21KT 02/01 A304 RMK A01 T00220008  RH  091%=      5-min Rain = 0
KGGS 072005Z 01014KT 02/01 A304 RMK A01 T00220007  RH  091%=      5-min Rain = 0
KGGS 072010Z 01015KT 02/01 A304 RMK A01 T00200005  RH  091%=      5-min Rain = 0
KGGS 072015Z 02014G21KT 02/01 A304 RMK A01 T00200005  RH  091%=      5-min Rain = 0
KGGS 072020Z 02015G20KT 02/01 A3039 RMK A01 T00200005  RH  091%=      5-min Rain = 0
KGGS 072025Z 01015KT 02/01 A3039 RMK A01 T00190005  RH  091%=      5-min Rain = 0
KGGS 072030Z 01014G20KT 02/01 A3039 RMK A01 T00190005  RH  092%=      5-min Rain = 0
KGGS 072035Z 01014G20KT 02/00 A3039 RMK A01 T00180004  RH  092%=      5-min Rain = 0
KGGS 072040Z 01013KT 02/01 A3039 RMK A01 T00190006  RH  092%=      5-min Rain = 0
KGGS 072045Z 02014G19KT 02/01 A3039 RMK A01 T00190005  RH  092%=      5-min Rain = 0
KGGS 072050Z 01014G19KT 02/01 A3039 RMK A01 T00200006  RH  092%=      5-min Rain = 0
KGGS 072055Z 01013KT 02/01 A304 RMK A01 T00190005  RH  092%=      5-min Rain = 0
KGGS 072100Z 01014KT 02/00 A304 RMK A01 T00180004  RH  091%=      5-min Rain = 0
KGGS 072105Z 01013KT 02/00 A304 RMK A01 T00180004  RH  091%=      5-min Rain = 0
KGGS 072110Z 02014KT 02/00 A304 RMK A01 T00180004  RH  091%=      5-min Rain = 0
KGGS 072115Z 02013KT 02/01 A304 RMK A01 T00200005  RH  091%=      5-min Rain = 0
KGGS 072120Z 01013G19KT 02/00 A304 RMK A01 T00200004  RH  090%=      5-min Rain = 0
KGGS 072125Z 02013KT 02/00 A304 RMK A01 T00200003  RH  090%=      5-min Rain = 0
KGGS 072130Z 01013G19KT 02/00 A3039 RMK A01 T00200004  RH  090%=      5-min Rain = 0
KGGS 072135Z 01012G18KT 02/00 A3039 RMK A01 T00210004  RH  090%=      5-min Rain = 0
KGGS 072140Z 01013KT 02/01 A304 RMK A01 T00210005  RH  090%=      5-min Rain = 0
KGGS 072145Z 01013G20KT 02/01 A304 RMK A01 T00210005  RH  090%=      5-min Rain = 0
KGGS 072150Z 01012G17KT 02/00 A304 RMK A01 T00210004  RH  090%=      5-min Rain = 0
KGGS 072155Z 01014KT 02/00 A304 RMK A01 T00200003  RH  090%=      5-min Rain = 0
KGGS 072200Z 01014KT 02/00 A304 RMK A01 T00200003  RH  089%=      5-min Rain = 0
KGGS 072205Z 01014KT 02/00 A304 RMK A01 T00210003  RH  089%=      5-min Rain = 0
KGGS 072210Z 01012KT 02/00 A304 RMK A01 T00220004  RH  089%=      5-min Rain = 0
KGGS 072215Z 01012G17KT 02/00 A304 RMK A01 T00210003  RH  089%=      5-min Rain = 0
KGGS 072220Z 01010G16KT 02/00 A3041 RMK A01 T00220004  RH  089%=      5-min Rain = 0
KGGS 072225Z 01012KT 02/00 A3041 RMK A01 T00210002  RH  089%=      5-min Rain = 0
KGGS 072230Z 00013KT 02/00 A3041 RMK A01 T00210002  RH  088%=      5-min Rain = 0
KGGS 072235Z 01012KT 02/00 A3041 RMK A01 T00210002  RH  088%=      5-min Rain = 0
KGGS 072240Z 00013KT 02/00 A3042 RMK A01 T00210001  RH  088%=      5-min Rain = 0
KGGS 072245Z 01011G16KT 02/00 A3042 RMK A01 T00210001  RH  088%=      5-min Rain = 0
KGGS 072250Z 01012KT 02/00 A3042 RMK A01 T00200000  RH  088%=      5-min Rain = 0
KGGS 072255Z 01009G14KT 02/00 A3043 RMK A01 T00210001  RH  088%=      5-min Rain = 0
KGGS 072300Z 01009KT 02/00 A3043 RMK A01 T00210001  RH  088%=      5-min Rain = 0
KGGS 072305Z 00010KT 02/00 A3042 RMK A01 T00210001  RH  088%=      5-min Rain = 0
KGGS 072310Z 01009KT 02/00 A3042 RMK A01 T00220002  RH  088%=      5-min Rain = 0
KGGS 072315Z 01011KT 02/00 A3042 RMK A01 T00210002  RH  088%=      5-min Rain = 0
KGGS 072320Z 00012G17KT 02/00 A3042 RMK A01 T00220002  RH  088%=      5-min Rain = 0
KGGS 072325Z 01010KT 02/00 A3042 RMK A01 T00210002  RH  088%=      5-min Rain = 0
KGGS 072330Z 01011G18KT 02/00 A3043 RMK A01 T00210002  RH  088%=      5-min Rain = 0
KGGS 072335Z 01013KT 02/00 A3043 RMK A01 T00210002  RH  088%=      5-min Rain = 0
KGGS 072340Z 01010G15KT 02/00 A3043 RMK A01 T00210002  RH  088%=      5-min Rain = 0
KGGS 072345Z 01009KT 02/00 A3043 RMK A01 T00210002  RH  088%=      5-min Rain = 0
KGGS 072350Z 01009KT 02/00 A3043 RMK A01 T00220003  RH  088%=      5-min Rain = 0
KGGS 072355Z 01010KT 02/00 A3043 RMK A01 T00220003  RH  088%=      5-min Rain = 0
KGGS 080000Z 01009KT 02/00 A3043 RMK A01 T00220003  RH  088%=      5-min Rain = 0
KGGS 080005Z 01009KT 02/00 A3043 RMK A01 T00230004  RH  088%=      5-min Rain = 0
KGGS 080010Z 00009G15KT 02/00 A3043 RMK A01 T00230003  RH  088%=      5-min Rain = 0
KGGS 080015Z 00011KT 02/00 A3043 RMK A01 T00230003  RH  088%=      5-min Rain = 0
KGGS 080020Z 01009KT 02/00 A3043 RMK A01 T00230003  RH  088%=      5-min Rain = 0
KGGS 080025Z 01009KT 02/00 A3043 RMK A01 T00230003  RH  088%=      5-min Rain = 0
KGGS 080030Z 01007KT 02/00 A3043 RMK A01 T00230004  RH  088%=      5-min Rain = 0
KGGS 080035Z 01007KT 02/00 A3043 RMK A01 T00220004  RH  089%=      5-min Rain = 0
KGGS 080040Z 00008KT 02/00 A3043 RMK A01 T00220004  RH  089%=      5-min Rain = 0
KGGS 080045Z 00009KT 02/00 A3043 RMK A01 T00210003  RH  089%=      5-min Rain = 0
KGGS 080050Z 00009KT 02/00 A3043 RMK A01 T00210004  RH  089%=      5-min Rain = 0
KGGS 080055Z 00009KT 02/00 A3043 RMK A01 T00210004  RH  089%=      5-min Rain = 0
KGGS 080100Z 01008KT 02/01 A3043 RMK A01 T00220005  RH  090%=      5-min Rain = 0
KGGS 080105Z 36008KT 02/01 A3044 RMK A01 T00220006  RH  090%=      5-min Rain = 0
KGGS 080110Z 36010KT 02/01 A3044 RMK A01 T00220005  RH  090%=      5-min Rain = 0
KGGS 080115Z 36011KT 02/01 A3043 RMK A01 T00210005  RH  090%=      5-min Rain = 0
KGGS 080120Z 01010KT 02/01 A3044 RMK A01 T00200005  RH  091%=      5-min Rain = 0
KGGS 080125Z 00011KT 02/01 A3044 RMK A01 T00200005  RH  091%=      5-min Rain = 0
KGGS 080130Z 01011KT 02/01 A3044 RMK A01 T00200006  RH  091%=      5-min Rain = 0
KGGS 080135Z 01010KT 02/01 A3044 RMK A01 T00210006  RH  092%=      5-min Rain = 0
KGGS 080140Z 01009KT 02/01 A3044 RMK A01 T00210007  RH  092%=      5-min Rain = 0
KGGS 080145Z 01009KT 02/01 A3044 RMK A01 T00210007  RH  092%=      5-min Rain = 0
KGGS 080150Z 01010KT 02/01 A3044 RMK A01 T00210007  RH  092%=      5-min Rain = 0
KGGS 080155Z 02011KT 02/01 A3043 RMK A01 T00200007  RH  092%=      5-min Rain = 0
KGGS 080200Z 02011KT 02/01 A3043 RMK A01 T00200007  RH  092%=      5-min Rain = 0
KGGS 080205Z 02010KT 02/01 A3043 RMK A01 T00210008  RH  092%=      5-min Rain = 0
KGGS 080210Z 02008G13KT 02/01 A3043 RMK A01 T00210008  RH  093%=      5-min Rain = 0
KGGS 080215Z 01010KT 02/01 A3044 RMK A01 T00210008  RH  093%=      5-min Rain = 0
KGGS 080220Z 01009KT 02/01 A3044 RMK A01 T00210009  RH  093%=      5-min Rain = 0
KGGS 080225Z 02010KT 02/01 A3044 RMK A01 T00210009  RH  093%=      5-min Rain = 0
KGGS 080230Z 01011KT 02/01 A3044 RMK A01 T00210009  RH  093%=      5-min Rain = 0
KGGS 080235Z 01010KT 02/01 A3045 RMK A01 T00220010  RH  093%=      5-min Rain = 0
KGGS 080240Z 00011KT 02/01 A3045 RMK A01 T00210009  RH  093%=      5-min Rain = 0
KGGS 080245Z 36011KT 02/01 A3045 RMK A01 T00200008  RH  093%=      5-min Rain = 0
KGGS 080250Z 00008KT 02/01 A3045 RMK A01 T00210009  RH  093%=      5-min Rain = 0
KGGS 080255Z 00009KT 02/01 A3046 RMK A01 T00210010  RH  094%=      5-min Rain = 0
KGGS 080300Z 01010KT 02/01 A3046 RMK A01 T00210010  RH  094%=      5-min Rain = 0
KGGS 080305Z 01009KT 02/01 A3046 RMK A01 T00210010  RH  094%=      5-min Rain = 0
KGGS 080310Z 02010KT 02/01 A3046 RMK A01 T00210010  RH  094%=      5-min Rain = 0
KGGS 080315Z 01011KT 02/01 A3046 RMK A01 T00200009  RH  094%=      5-min Rain = 0
KGGS 080320Z 01009KT 02/01 A3046 RMK A01 T00200010  RH  094%=      5-min Rain = 0
KGGS 080325Z 01011KT 02/01 A3046 RMK A01 T00190009  RH  094%=      5-min Rain = 0
KGGS 080330Z 00010KT 02/01 A3045 RMK A01 T00190008  RH  094%=      5-min Rain = 0
KGGS 080335Z 00012KT 02/01 A3045 RMK A01 T00180008  RH  094%=      5-min Rain = 0
KGGS 080340Z 01011KT 02/01 A3045 RMK A01 T00170006  RH  094%=      5-min Rain = 0
KGGS 080345Z 03011KT 02/01 A3045 RMK A01 T00150005  RH  094%=      5-min Rain = 0
KGGS 080350Z 03010KT 02/01 A3045 RMK A01 T00150005  RH  094%=      5-min Rain = 0
KGGS 080355Z 03008KT 02/01 A3046 RMK A01 T00150005  RH  094%=      5-min Rain = 0
KGGS 080400Z 02009KT 02/01 A3046 RMK A01 T00150005  RH  094%=      5-min Rain = 0
KGGS 080405Z 02009KT 02/01 A3046 RMK A01 T00150005  RH  094%=      5-min Rain = 0
KGGS 080410Z 02010KT 02/01 A3046 RMK A01 T00160006  RH  094%=      5-min Rain = 0
KGGS 080415Z 02008KT 02/01 A3046 RMK A01 T00170006  RH  094%=      5-min Rain = 0
KGGS 080420Z 02008KT 02/01 A3046 RMK A01 T00170006  RH  094%=      5-min Rain = 0
KGGS 080425Z 02009KT 02/01 A3046 RMK A01 T00170007  RH  094%=      5-min Rain = 0
KGGS 080430Z 02009KT 02/01 A3046 RMK A01 T00180007  RH  094%=      5-min Rain = 0
KGGS 080435Z 02009KT 02/01 A3046 RMK A01 T00180007  RH  093%=      5-min Rain = 0
KGGS 080440Z 01008KT 02/01 A3046 RMK A01 T00190007  RH  093%=      5-min Rain = 0
KGGS 080445Z 01007KT 02/01 A3046 RMK A01 T00190007  RH  093%=      5-min Rain = 0
KGGS 080450Z 01008KT 02/01 A3046 RMK A01 T00200007  RH  092%=      5-min Rain = 0
KGGS 080455Z 01009KT 02/01 A3046 RMK A01 T00200007  RH  092%=      5-min Rain = 0
KGGS 080500Z 01008KT 02/01 A3046 RMK A01 T00210007  RH  092%=      5-min Rain = 0
KGGS 080505Z 01009KT 02/01 A3046 RMK A01 T00210006  RH  091%=      5-min Rain = 0
KGGS 080510Z 00009KT 02/01 A3046 RMK A01 T00220007  RH  091%=      5-min Rain = 0
KGGS 080515Z 01008KT 02/01 A3045 RMK A01 T00220006  RH  091%=      5-min Rain = 0
KGGS 080520Z 01009KT 02/01 A3046 RMK A01 T00220006  RH  090%=      5-min Rain = 0
KGGS 080525Z 02009KT 02/01 A3046 RMK A01 T00220005  RH  090%=      5-min Rain = 0
KGGS 080530Z 01007KT 02/01 A3046 RMK A01 T00230005  RH  089%=      5-min Rain = 0
KGGS 080535Z 01009KT 02/01 A3045 RMK A01 T00230005  RH  089%=      5-min Rain = 0
KGGS 080540Z 01010KT 02/00 A3045 RMK A01 T00220003  RH  089%=      5-min Rain = 0
KGGS 080545Z 01009KT 02/00 A3045 RMK A01 T00220002  RH  088%=      5-min Rain = 0
KGGS 080550Z 02008KT 02/00 A3045 RMK A01 T00220002  RH  088%=      5-min Rain = 0
KGGS 080555Z 00008KT 02/00 A3045 RMK A01 T00230003  RH  088%=      5-min Rain = 0

Page generated in 0.015 seconds.